Time;durP1;ratioP1;P1;durP2;ratioP2;P2;SDS_P1;SDS_P2;PMS_P1;PMS_P2;Temp;Humidity;BMP_temperature;BMP_pressure;BME280_temperature;BME280_humidity;BME280_pressure;Samples;Min_cycle;Max_cycle;Signal;HPM_P1;HPM_P2
2023/02/24 00:02:03;;;;;;;20.80;11.77;;;;;;;;;;4961668;28;20488;-81
2023/02/24 00:04:33;;;;;;;27.05;12.50;;;;;;;;;;4961007;28;20995;-82
2023/02/24 00:07:01;;;;;;;19.88;12.38;;;;;;;;;;4961620;28;21005;-82
2023/02/24 00:09:28;;;;;;;27.10;13.10;;;;;;;;;;4954300;28;20664;-81
2023/02/24 00:12:02;;;;;;;31.40;10.80;;;;;;;;;;4961377;28;20508;-82
2023/02/24 00:14:29;;;;;;;24.13;12.67;;;;;;;;;;4959062;28;20540;-83
2023/02/24 00:16:57;;;;;;;27.67;13.65;;;;;;;;;;4961041;28;20422;-82
2023/02/24 00:19:24;;;;;;;31.03;12.97;;;;;;;;;;4955958;28;21090;-83
2023/02/24 00:21:50;;;;;;;24.38;12.95;;;;;;;;;;4939491;28;20464;-81
2023/02/24 00:24:17;;;;;;;25.13;13.53;;;;;;;;;;4954630;28;21935;-82
2023/02/24 00:26:44;;;;;;;20.87;12.97;;;;;;;;;;4960564;28;20441;-81
2023/02/24 00:29:12;;;;;;;28.40;13.70;;;;;;;;;;4959677;28;20480;-81
2023/02/24 00:31:40;;;;;;;27.80;14.37;;;;;;;;;;4963877;28;20433;-79
2023/02/24 00:34:07;;;;;;;37.60;13.90;;;;;;;;;;4959190;28;20461;-81
2023/02/24 00:36:34;;;;;;;29.77;13.53;;;;;;;;;;4963416;28;20642;-80
2023/02/24 00:39:07;;;;;;;28.50;12.47;;;;;;;;;;4959573;28;20449;-80
2023/02/24 00:41:36;;;;;;;20.35;9.57;;;;;;;;;;4960611;28;20483;-80
2023/02/24 00:44:08;;;;;;;19.98;9.38;;;;;;;;;;4958617;28;20564;-81
2023/02/24 00:46:36;;;;;;;19.60;8.50;;;;;;;;;;4959362;28;20206;-81
2023/02/24 00:49:09;;;;;;;22.17;7.72;;;;;;;;;;4954707;28;20457;-80
2023/02/24 00:51:47;;;;;;;18.17;8.30;;;;;;;;;;4960376;28;20205;-80
2023/02/24 00:54:15;;;;;;;33.07;10.03;;;;;;;;;;4943806;28;20194;-80
2023/02/24 00:56:42;;;;;;;17.13;7.43;;;;;;;;;;4962295;28;20994;-79
2023/02/24 00:59:10;;;;;;;16.33;7.38;;;;;;;;;;4959088;28;20485;-81
2023/02/24 01:01:36;;;;;;;20.17;7.20;;;;;;;;;;4961947;28;20221;-80
2023/02/24 01:04:10;;;;;;;14.97;6.00;;;;;;;;;;4959088;28;20453;-81
2023/02/24 01:06:36;;;;;;;14.73;6.70;;;;;;;;;;4960489;28;20441;-81
2023/02/24 01:09:07;;;;;;;10.95;5.22;;;;;;;;;;4939815;28;21240;-81
2023/02/24 01:14:20;;;;;;;22.43;6.67;;;;;;;;;;4951032;28;20271;-80
2023/02/24 01:16:50;;;;;;;12.77;5.03;;;;;;;;;;4959387;28;20432;-80
2023/02/24 01:19:17;;;;;;;18.90;5.73;;;;;;;;;;4967189;28;20465;-80
2023/02/24 01:21:44;;;;;;;13.05;4.90;;;;;;;;;;4967899;28;20616;-81
2023/02/24 01:24:11;;;;;;;7.87;4.27;;;;;;;;;;4963432;28;20186;-81
2023/02/24 01:26:40;;;;;;;12.93;4.87;;;;;;;;;;4962228;28;20520;-79
2023/02/24 01:29:09;;;;;;;14.57;4.63;;;;;;;;;;4935208;28;20454;-79
2023/02/24 01:31:42;;;;;;;8.90;4.27;;;;;;;;;;4957518;28;20446;-80
2023/02/24 01:34:09;;;;;;;22.17;4.57;;;;;;;;;;4953995;28;20458;-79
2023/02/24 01:36:36;;;;;;;22.40;5.20;;;;;;;;;;4959491;28;21241;-80
2023/02/24 01:39:06;;;;;;;14.43;4.00;;;;;;;;;;4960095;28;20445;-81
2023/02/24 01:41:32;;;;;;;15.25;4.45;;;;;;;;;;4959515;28;20472;-80
2023/02/24 01:44:01;;;;;;;13.33;4.97;;;;;;;;;;4956252;28;20201;-80
2023/02/24 01:46:34;;;;;;;20.35;5.13;;;;;;;;;;4959296;28;20464;-79
2023/02/24 01:49:07;;;;;;;18.65;4.35;;;;;;;;;;4956935;28;20204;-78
2023/02/24 01:51:35;;;;;;;14.73;4.30;;;;;;;;;;4956109;28;20182;-79
2023/02/24 01:54:01;;;;;;;15.52;3.97;;;;;;;;;;4956979;28;20453;-79
2023/02/24 01:56:30;;;;;;;12.40;4.20;;;;;;;;;;4956291;28;20707;-82
2023/02/24 01:58:57;;;;;;;21.88;3.67;;;;;;;;;;4957207;28;20523;-81
2023/02/24 02:01:23;;;;;;;8.67;2.83;;;;;;;;;;4959304;28;20252;-79
2023/02/24 02:03:51;;;;;;;13.60;4.40;;;;;;;;;;4957915;28;20488;-79
2023/02/24 02:06:17;;;;;;;9.97;3.40;;;;;;;;;;4956927;28;21212;-80
2023/02/24 02:08:43;;;;;;;13.90;4.43;;;;;;;;;;4962097;28;20484;-80
2023/02/24 02:11:18;;;;;;;15.27;5.17;;;;;;;;;;4956410;28;20476;-79
2023/02/24 02:13:49;;;;;;;11.00;3.30;;;;;;;;;;4956387;28;20457;-83
2023/02/24 02:16:37;;;;;;;8.97;4.00;;;;;;;;;;4938990;28;20479;-80
2023/02/24 02:19:22;;;;;;;17.45;3.67;;;;;;;;;;4941533;28;21244;-81
2023/02/24 02:21:48;;;;;;;19.23;3.90;;;;;;;;;;4959628;28;20233;-79
2023/02/24 02:24:21;;;;;;;12.93;3.43;;;;;;;;;;4968388;28;20456;-81
2023/02/24 02:27:02;;;;;;;17.17;3.97;;;;;;;;;;4967255;28;20445;-80
2023/02/24 02:30:02;;;;;;;20.90;3.30;;;;;;;;;;4969705;28;20205;-81
2023/02/24 02:32:39;;;;;;;15.07;2.90;;;;;;;;;;4968856;28;20421;-82
2023/02/24 02:35:19;;;;;;;6.60;3.38;;;;;;;;;;4961813;28;21019;-79
2023/02/24 02:38:05;;;;;;;13.85;4.00;;;;;;;;;;4958788;28;20201;-80
2023/02/24 02:40:39;;;;;;;8.77;4.35;;;;;;;;;;4955502;28;20213;-82
2023/02/24 02:43:24;;;;;;;11.57;3.63;;;;;;;;;;4938453;28;20216;-80
2023/02/24 02:45:57;;;;;;;7.13;4.13;;;;;;;;;;4962665;28;20449;-81
2023/02/24 02:48:30;;;;;;;10.00;3.50;;;;;;;;;;4939683;28;20445;-79
2023/02/24 02:51:04;;;;;;;10.17;3.10;;;;;;;;;;4962242;28;20819;-80
2023/02/24 02:53:36;;;;;;;5.80;2.73;;;;;;;;;;4968115;28;20854;-80
2023/02/24 02:56:02;;;;;;;16.30;5.17;;;;;;;;;;4963169;28;20534;-80
2023/02/24 02:58:30;;;;;;;5.97;3.23;;;;;;;;;;4958536;28;20453;-79
2023/02/24 03:01:03;;;;;;;7.83;3.57;;;;;;;;;;4953739;28;20485;-79
2023/02/24 03:03:34;;;;;;;11.00;2.67;;;;;;;;;;4956674;28;20465;-80
2023/02/24 03:06:06;;;;;;;6.63;2.73;;;;;;;;;;4955840;28;20457;-79
2023/02/24 03:08:36;;;;;;;8.43;3.13;;;;;;;;;;4957476;28;20483;-80
2023/02/24 03:11:04;;;;;;;17.53;3.97;;;;;;;;;;4957251;28;20960;-80
2023/02/24 03:13:33;;;;;;;9.13;3.40;;;;;;;;;;4956422;28;20461;-79
2023/02/24 03:16:01;;;;;;;14.95;3.50;;;;;;;;;;4962758;28;20457;-80
2023/02/24 03:18:29;;;;;;;6.47;2.90;;;;;;;;;;4966093;28;20186;-80
2023/02/24 03:21:06;;;;;;;16.88;3.63;;;;;;;;;;4973652;28;20213;-79
2023/02/24 03:23:35;;;;;;;7.57;2.83;;;;;;;;;;4968996;28;20215;-79
2023/02/24 03:26:06;;;;;;;15.67;2.70;;;;;;;;;;4961301;28;20227;-79
2023/02/24 03:28:37;;;;;;;11.53;3.60;;;;;;;;;;4961088;28;20530;-79
2023/02/24 03:31:09;;;;;;;4.22;2.88;;;;;;;;;;4963614;28;20460;-79
2023/02/24 03:33:40;;;;;;;9.93;2.80;;;;;;;;;;4960145;28;20305;-81
2023/02/24 03:36:06;;;;;;;14.15;3.85;;;;;;;;;;4962532;28;20693;-80
2023/02/24 03:38:34;;;;;;;8.33;3.30;;;;;;;;;;4960204;28;20197;-79
2023/02/24 03:41:00;;;;;;;7.07;3.03;;;;;;;;;;4960712;28;20480;-80
2023/02/24 03:43:30;;;;;;;5.45;3.13;;;;;;;;;;4963821;28;20479;-80
2023/02/24 03:45:56;;;;;;;9.63;3.57;;;;;;;;;;4961096;28;20194;-80
2023/02/24 03:48:23;;;;;;;8.02;2.95;;;;;;;;;;4955097;28;20543;-80
2023/02/24 03:50:50;;;;;;;5.17;2.47;;;;;;;;;;4960665;28;20182;-81
2023/02/24 03:53:29;;;;;;;10.52;2.50;;;;;;;;;;4960689;28;20461;-80
2023/02/24 03:56:02;;;;;;;15.23;3.63;;;;;;;;;;4961355;28;20184;-80
2023/02/24 03:58:31;;;;;;;9.63;3.03;;;;;;;;;;4960971;28;20496;-81
2023/02/24 04:01:04;;;;;;;6.88;2.17;;;;;;;;;;4958340;28;21220;-81
2023/02/24 04:03:45;;;;;;;13.20;2.97;;;;;;;;;;4961100;28;20378;-79
2023/02/24 04:06:13;;;;;;;5.33;3.30;;;;;;;;;;4962964;28;20201;-80
2023/02/24 04:09:02;;;;;;;15.03;3.23;;;;;;;;;;4960502;28;20488;-80
2023/02/24 04:11:32;;;;;;;7.15;3.58;;;;;;;;;;4914686;28;20472;-80
2023/02/24 04:14:10;;;;;;;10.40;3.07;;;;;;;;;;4959814;28;20193;-79
2023/02/24 04:16:55;;;;;;;10.77;3.17;;;;;;;;;;4961317;28;20468;-79
2023/02/24 04:19:23;;;;;;;9.80;3.38;;;;;;;;;;4944860;28;20503;-82
2023/02/24 04:21:49;;;;;;;16.70;3.47;;;;;;;;;;4960602;28;20226;-80
2023/02/24 04:24:18;;;;;;;5.93;2.75;;;;;;;;;;4959402;28;20273;-79
2023/02/24 04:26:45;;;;;;;8.50;2.83;;;;;;;;;;4960291;28;20717;-81
2023/02/24 04:29:16;;;;;;;7.55;2.90;;;;;;;;;;4956589;28;20461;-80
2023/02/24 04:32:01;;;;;;;2.67;2.55;;;;;;;;;;4953227;28;20202;-79
2023/02/24 04:34:31;;;;;;;8.95;2.42;;;;;;;;;;4957257;28;20331;-79
2023/02/24 04:36:58;;;;;;;10.25;3.72;;;;;;;;;;4959081;28;20456;-81
2023/02/24 04:39:24;;;;;;;4.93;2.80;;;;;;;;;;4940873;28;20331;-80
2023/02/24 04:41:51;;;;;;;12.73;3.13;;;;;;;;;;4944608;28;20543;-80
2023/02/24 04:44:18;;;;;;;7.15;2.42;;;;;;;;;;4954977;28;20199;-80
2023/02/24 04:46:45;;;;;;;5.85;2.72;;;;;;;;;;4941105;28;20201;-81
2023/02/24 04:49:11;;;;;;;13.98;3.70;;;;;;;;;;4957493;28;20365;-85
2023/02/24 04:51:41;;;;;;;4.35;2.10;;;;;;;;;;4961324;28;20186;-82
2023/02/24 04:54:18;;;;;;;7.07;3.90;;;;;;;;;;4944380;28;20208;-77
2023/02/24 04:56:49;;;;;;;12.88;3.30;;;;;;;;;;4958294;28;20480;-79
2023/02/24 04:59:16;;;;;;;11.10;3.03;;;;;;;;;;4956223;28;20994;-79
2023/02/24 05:01:43;;;;;;;13.05;4.25;;;;;;;;;;4956203;28;20229;-80
2023/02/24 05:04:09;;;;;;;10.32;2.83;;;;;;;;;;4960000;28;20194;-79
2023/02/24 05:06:39;;;;;;;7.07;3.00;;;;;;;;;;4958839;28;20680;-84
2023/02/24 05:09:13;;;;;;;7.40;2.97;;;;;;;;;;4970366;28;20223;-86
2023/02/24 05:11:42;;;;;;;9.40;3.60;;;;;;;;;;4959992;28;20480;-85
2023/02/24 05:14:15;;;;;;;20.88;3.40;;;;;;;;;;4966643;28;20539;-82
2023/02/24 05:16:45;;;;;;;5.40;3.40;;;;;;;;;;4959276;28;20192;-87
2023/02/24 05:21:57;;;;;;;8.02;3.35;;;;;;;;;;4950114;28;20281;-78
2023/02/24 05:24:24;;;;;;;16.00;3.28;;;;;;;;;;4959332;28;20194;-77
2023/02/24 05:26:56;;;;;;;7.68;2.85;;;;;;;;;;4969481;28;20192;-77
2023/02/24 05:29:23;;;;;;;9.98;3.95;;;;;;;;;;4962307;28;20669;-78
2023/02/24 05:31:49;;;;;;;14.93;3.92;;;;;;;;;;4953768;28;20811;-79
2023/02/24 05:34:16;;;;;;;7.63;3.40;;;;;;;;;;4958480;28;20190;-80
2023/02/24 05:36:44;;;;;;;7.70;3.60;;;;;;;;;;4960753;28;20650;-80
2023/02/24 05:39:11;;;;;;;9.25;3.90;;;;;;;;;;4956894;28;20577;-80
2023/02/24 05:41:41;;;;;;;11.43;3.80;;;;;;;;;;4962383;28;20645;-80
2023/02/24 05:44:10;;;;;;;16.60;3.85;;;;;;;;;;4958461;28;20213;-79
2023/02/24 05:46:38;;;;;;;8.93;4.40;;;;;;;;;;4960812;28;20206;-79
2023/02/24 05:49:08;;;;;;;11.03;4.73;;;;;;;;;;4953016;28;20894;-79
2023/02/24 05:51:34;;;;;;;11.65;4.30;;;;;;;;;;4956659;28;20460;-80
2023/02/24 05:54:03;;;;;;;15.80;4.32;;;;;;;;;;4962234;28;20196;-79
2023/02/24 05:56:30;;;;;;;13.25;4.70;;;;;;;;;;4962461;28;20188;-79
2023/02/24 05:59:00;;;;;;;16.48;5.20;;;;;;;;;;4961792;28;20669;-78
2023/02/24 06:01:34;;;;;;;9.65;4.78;;;;;;;;;;4963941;28;20230;-78
2023/02/24 06:04:07;;;;;;;8.70;5.20;;;;;;;;;;4967649;28;20204;-79
2023/02/24 06:06:37;;;;;;;13.73;4.75;;;;;;;;;;4970655;28;20186;-77
2023/02/24 06:09:09;;;;;;;10.82;5.05;;;;;;;;;;4966792;28;20599;-79
2023/02/24 06:11:36;;;;;;;15.25;4.72;;;;;;;;;;4966226;28;20184;-79
2023/02/24 06:14:05;;;;;;;12.25;3.90;;;;;;;;;;4956040;28;20650;-79
2023/02/24 06:16:32;;;;;;;13.35;5.30;;;;;;;;;;4962811;28;20218;-81
2023/02/24 06:18:58;;;;;;;9.45;4.50;;;;;;;;;;4962138;28;20969;-78
2023/02/24 06:21:28;;;;;;;9.60;4.43;;;;;;;;;;4961807;28;20202;-79
2023/02/24 06:23:56;;;;;;;9.48;4.80;;;;;;;;;;4935871;28;20205;-79
2023/02/24 06:26:22;;;;;;;7.35;4.35;;;;;;;;;;4961440;28;20260;-78
2023/02/24 06:28:52;;;;;;;12.35;4.55;;;;;;;;;;4959729;28;20258;-78
2023/02/24 06:31:20;;;;;;;7.57;4.10;;;;;;;;;;4960177;28;20182;-79
2023/02/24 06:33:46;;;;;;;9.15;3.83;;;;;;;;;;4961666;28;20197;-79
2023/02/24 06:36:15;;;;;;;26.10;5.43;;;;;;;;;;4963092;28;20545;-79
2023/02/24 06:38:42;;;;;;;4.53;3.93;;;;;;;;;;4961129;28;20202;-79
2023/02/24 06:41:11;;;;;;;11.50;3.85;;;;;;;;;;4959997;28;20482;-78
2023/02/24 06:43:38;;;;;;;7.07;4.07;;;;;;;;;;4970083;28;20204;-80
2023/02/24 06:46:05;;;;;;;7.82;3.67;;;;;;;;;;4946743;28;20202;-80
2023/02/24 06:48:32;;;;;;;9.27;3.78;;;;;;;;;;4958778;28;20217;-78
2023/02/24 06:51:02;;;;;;;7.65;3.00;;;;;;;;;;4964478;28;20254;-79
2023/02/24 06:53:28;;;;;;;8.77;3.27;;;;;;;;;;4963508;28;20716;-79
2023/02/24 06:55:54;;;;;;;12.10;3.53;;;;;;;;;;4962223;28;20928;-79
2023/02/24 06:58:23;;;;;;;16.75;4.72;;;;;;;;;;4957548;28;20193;-79
2023/02/24 07:00:55;;;;;;;14.07;3.65;;;;;;;;;;4933183;28;20233;-76
2023/02/24 07:03:23;;;;;;;6.82;3.25;;;;;;;;;;4962929;28;20189;-79
2023/02/24 07:05:53;;;;;;;14.50;5.20;;;;;;;;;;4962564;28;20194;-81
2023/02/24 07:08:23;;;;;;;5.63;2.63;;;;;;;;;;4966397;28;20445;-77
2023/02/24 07:10:56;;;;;;;11.90;3.78;;;;;;;;;;4960796;28;20916;-80
2023/02/24 07:13:23;;;;;;;11.23;4.00;;;;;;;;;;4944087;28;20563;-80
2023/02/24 07:15:49;;;;;;;7.13;4.80;;;;;;;;;;4959612;28;20459;-79
2023/02/24 07:18:16;;;;;;;6.43;3.50;;;;;;;;;;4964573;28;20233;-82
2023/02/24 07:20:45;;;;;;;7.67;4.37;;;;;;;;;;4959483;28;20858;-80
2023/02/24 07:23:15;;;;;;;10.07;3.17;;;;;;;;;;4962562;28;20448;-80
2023/02/24 07:25:45;;;;;;;9.33;3.70;;;;;;;;;;4962105;28;20468;-79
2023/02/24 07:28:11;;;;;;;9.52;3.35;;;;;;;;;;4959062;28;21897;-79
2023/02/24 07:30:39;;;;;;;11.15;3.65;;;;;;;;;;4968190;28;20790;-82
2023/02/24 07:33:05;;;;;;;6.50;3.25;;;;;;;;;;4965242;28;20194;-79
2023/02/24 07:35:34;;;;;;;18.30;4.43;;;;;;;;;;4964175;28;20665;-78
2023/02/24 07:38:03;;;;;;;7.37;3.50;;;;;;;;;;4965391;28;20171;-78
2023/02/24 07:40:32;;;;;;;14.80;4.72;;;;;;;;;;4965023;28;20459;-79
2023/02/24 07:42:59;;;;;;;8.05;3.88;;;;;;;;;;4960047;28;20186;-79
2023/02/24 07:45:25;;;;;;;10.68;4.43;;;;;;;;;;4959861;28;20658;-79
2023/02/24 07:47:51;;;;;;;5.18;3.80;;;;;;;;;;4963681;28;20191;-79
2023/02/24 07:50:17;;;;;;;7.10;3.10;;;;;;;;;;4960135;28;20196;-82
2023/02/24 07:52:46;;;;;;;11.60;4.07;;;;;;;;;;4960753;28;20269;-79
2023/02/24 07:55:14;;;;;;;15.45;4.97;;;;;;;;;;4957835;28;20207;-78
2023/02/24 07:57:45;;;;;;;9.10;3.15;;;;;;;;;;4947333;28;20241;-80
2023/02/24 08:00:17;;;;;;;16.80;3.70;;;;;;;;;;4965078;28;20615;-80
2023/02/24 08:02:43;;;;;;;12.88;4.63;;;;;;;;;;4970365;28;20444;-81
2023/02/24 08:05:10;;;;;;;4.40;3.38;;;;;;;;;;4964494;28;20255;-81
2023/02/24 08:07:36;;;;;;;6.57;3.80;;;;;;;;;;4956719;28;20201;-79
2023/02/24 08:10:08;;;;;;;7.10;3.53;;;;;;;;;;4962715;28;20197;-80
2023/02/24 08:12:34;;;;;;;11.20;4.80;;;;;;;;;;4959708;28;20996;-80
2023/02/24 08:15:07;;;;;;;3.63;3.30;;;;;;;;;;4962436;28;20457;-81
2023/02/24 08:17:34;;;;;;;11.03;3.67;;;;;;;;;;4943615;28;20505;-82
2023/02/24 08:20:20;;;;;;;5.45;3.80;;;;;;;;;;4961245;28;21001;-78
2023/02/24 08:22:51;;;;;;;2.93;2.83;;;;;;;;;;4943807;28;20813;-79
2023/02/24 08:25:18;;;;;;;4.43;3.67;;;;;;;;;;4962311;28;20485;-80
2023/02/24 08:27:45;;;;;;;8.45;3.30;;;;;;;;;;4961171;28;20516;-82
2023/02/24 08:30:28;;;;;;;14.30;5.00;;;;;;;;;;4958027;28;20282;-80
2023/02/24 08:32:58;;;;;;;10.83;4.10;;;;;;;;;;4957498;28;21119;-79
2023/02/24 08:35:34;;;;;;;6.53;4.40;;;;;;;;;;4949694;28;20818;-80
2023/02/24 08:38:06;;;;;;;3.47;3.27;;;;;;;;;;4958604;28;20561;-81
2023/02/24 08:40:37;;;;;;;5.72;4.38;;;;;;;;;;4937028;28;20604;-80
2023/02/24 08:43:47;;;;;;;8.10;4.28;;;;;;;;;;4953539;28;20653;-80
2023/02/24 08:46:11;;;;;;;6.72;3.65;;;;;;;;;;4951623;28;20210;-80
2023/02/24 08:48:48;;;;;;;7.53;3.47;;;;;;;;;;4959378;28;20273;-79
2023/02/24 08:51:27;;;;;;;15.35;3.80;;;;;;;;;;4952400;28;20838;-80
2023/02/24 08:53:54;;;;;;;4.40;3.23;;;;;;;;;;4955129;28;20198;-80
2023/02/24 08:56:22;;;;;;;11.83;4.70;;;;;;;;;;4956588;28;20823;-81
2023/02/24 08:58:52;;;;;;;7.95;4.03;;;;;;;;;;4955855;28;20481;-81
2023/02/24 09:01:22;;;;;;;12.67;4.13;;;;;;;;;;4959113;28;20221;-81
2023/02/24 09:03:50;;;;;;;7.65;4.50;;;;;;;;;;4955736;28;20512;-80
2023/02/24 09:06:24;;;;;;;9.77;4.22;;;;;;;;;;4960552;28;20818;-82
2023/02/24 09:09:15;;;;;;;10.93;3.33;;;;;;;;;;4938683;28;20239;-81
2023/02/24 09:11:36;;;;;;;4.57;3.70;;;;;;;;;;4957841;28;20507;-84
2023/02/24 09:14:03;;;;;;;8.83;4.27;;;;;;;;;;4952998;28;20249;-81
2023/02/24 09:16:30;;;;;;;4.10;3.30;;;;;;;;;;4957277;28;20445;-81
2023/02/24 09:22:13;;;;;;;3.47;2.47;;;;;;;;;;4919556;28;20498;-81
2023/02/24 09:24:43;;;;;;;12.93;3.27;;;;;;;;;;4963566;28;20851;-79
2023/02/24 09:27:16;;;;;;;6.93;3.80;;;;;;;;;;4941688;28;20808;-81
2023/02/24 09:29:48;;;;;;;6.47;3.70;;;;;;;;;;4956972;28;20449;-79
2023/02/24 09:32:15;;;;;;;9.00;3.75;;;;;;;;;;4957588;28;20193;-82
2023/02/24 09:34:42;;;;;;;3.90;3.20;;;;;;;;;;4961532;28;20181;-79
2023/02/24 09:37:23;;;;;;;3.47;2.40;;;;;;;;;;4977863;28;20457;-78
2023/02/24 09:42:31;;;;;;;5.00;3.50;;;;;;;;;;4961622;28;20477;-82
2023/02/24 09:45:01;;;;;;;5.80;3.03;;;;;;;;;;4960354;28;20453;-80
2023/02/24 09:47:38;;;;;;;4.97;2.67;;;;;;;;;;4961819;28;20447;-79
2023/02/24 09:50:19;;;;;;;4.73;2.37;;;;;;;;;;4955655;28;20496;-80
2023/02/24 09:52:53;;;;;;;3.40;2.90;;;;;;;;;;4941484;28;20965;-80
2023/02/24 09:55:25;;;;;;;4.33;3.33;;;;;;;;;;4955492;28;20796;-79
2023/02/24 10:01:19;;;;;;;4.90;2.50;;;;;;;;;;4953619;28;21016;-80
2023/02/24 10:04:03;;;;;;;4.57;2.60;;;;;;;;;;4954312;28;20232;-81
2023/02/24 10:06:50;;;;;;;7.45;3.22;;;;;;;;;;4949867;28;20601;-82
2023/02/24 10:09:25;;;;;;;6.50;2.80;;;;;;;;;;4958557;28;20190;-81
2023/02/24 10:11:54;;;;;;;4.13;2.70;;;;;;;;;;4944969;28;20510;-80
2023/02/24 10:14:29;;;;;;;9.83;3.73;;;;;;;;;;4947358;28;20960;-79
2023/02/24 10:17:40;;;;;;;3.60;2.53;;;;;;;;;;4948405;28;20523;-80
2023/02/24 10:19:55;;;;;;;6.93;2.25;;;;;;;;;;4946201;28;20899;-80
2023/02/24 10:22:49;;;;;;;6.57;2.43;;;;;;;;;;4956180;28;20283;-77
2023/02/24 10:25:22;;;;;;;3.50;2.10;;;;;;;;;;4947114;28;20992;-79
2023/02/24 10:27:56;;;;;;;1.67;1.57;;;;;;;;;;4930608;28;20473;-78
2023/02/24 10:30:26;;;;;;;2.83;2.00;;;;;;;;;;4951322;28;20465;-79
2023/02/24 10:32:57;;;;;;;5.40;1.70;;;;;;;;;;4946696;28;20447;-79
2023/02/24 10:35:24;;;;;;;3.35;1.80;;;;;;;;;;4950398;28;20442;-78
2023/02/24 10:37:51;;;;;;;3.03;1.80;;;;;;;;;;4929585;28;20208;-80
2023/02/24 10:40:43;;;;;;;7.22;2.00;;;;;;;;;;4951151;28;20976;-78
2023/02/24 10:43:09;;;;;;;9.07;3.13;;;;;;;;;;4947493;28;20273;-79
2023/02/24 10:45:43;;;;;;;2.87;1.00;;;;;;;;;;4954213;28;20690;-78
2023/02/24 10:48:17;;;;;;;5.90;2.27;;;;;;;;;;4931535;28;20446;-79
2023/02/24 10:50:48;;;;;;;7.10;2.20;;;;;;;;;;4949660;28;20456;-77
2023/02/24 10:53:35;;;;;;;7.50;2.90;;;;;;;;;;4952249;28;20758;-80
2023/02/24 10:59:19;;;;;;;14.45;3.75;;;;;;;;;;4949467;28;20563;-78
2023/02/24 11:01:57;;;;;;;2.65;2.28;;;;;;;;;;4951444;28;20680;-79
2023/02/24 11:04:32;;;;;;;6.93;2.67;;;;;;;;;;4942546;28;20212;-77
2023/02/24 11:07:08;;;;;;;7.17;2.83;;;;;;;;;;4954679;28;20205;-80
2023/02/24 11:09:42;;;;;;;4.38;2.63;;;;;;;;;;4951600;28;20449;-79
2023/02/24 11:17:57;;;;;;;4.45;3.20;;;;;;;;;;4950510;28;20279;-79
2023/02/24 11:20:32;;;;;;;3.42;3.00;;;;;;;;;;4954933;28;20739;-79
2023/02/24 11:23:01;;;;;;;16.48;5.15;;;;;;;;;;4957037;28;20198;-79
2023/02/24 11:25:35;;;;;;;3.10;2.85;;;;;;;;;;4953857;28;20669;-79
2023/02/24 11:28:01;;;;;;;13.48;3.90;;;;;;;;;;4928581;28;20207;-80
2023/02/24 11:30:41;;;;;;;11.77;4.10;;;;;;;;;;4953785;28;20209;-80
2023/02/24 11:33:21;;;;;;;10.68;4.35;;;;;;;;;;4952783;28;20182;-80
2023/02/24 11:35:55;;;;;;;7.70;3.33;;;;;;;;;;4952786;28;21781;-80
2023/02/24 11:38:30;;;;;;;3.45;2.28;;;;;;;;;;4953684;28;20193;-80
2023/02/24 11:41:07;;;;;;;6.93;4.07;;;;;;;;;;4953792;28;20780;-81
2023/02/24 11:43:36;;;;;;;8.40;3.72;;;;;;;;;;4949723;28;20223;-79
2023/02/24 11:46:10;;;;;;;8.50;3.42;;;;;;;;;;4955165;28;20610;-81
2023/02/24 11:48:38;;;;;;;10.23;3.67;;;;;;;;;;4964757;28;20225;-80
2023/02/24 11:51:06;;;;;;;3.33;3.03;;;;;;;;;;4972443;28;20205;-80
2023/02/24 11:53:51;;;;;;;4.97;3.67;;;;;;;;;;4961156;28;20203;-79
2023/02/24 11:56:33;;;;;;;17.33;4.78;;;;;;;;;;4955865;28;20205;-79
2023/02/24 11:59:13;;;;;;;6.78;3.90;;;;;;;;;;4958110;28;20206;-81
2023/02/24 12:01:39;;;;;;;4.43;3.38;;;;;;;;;;4940502;28;20233;-79
2023/02/24 12:04:05;;;;;;;6.93;3.75;;;;;;;;;;4958753;28;20199;-80
2023/02/24 12:06:36;;;;;;;10.57;3.97;;;;;;;;;;4954391;28;20201;-79
2023/02/24 12:09:14;;;;;;;6.43;3.70;;;;;;;;;;4954886;28;20461;-78
2023/02/24 12:12:09;;;;;;;4.97;4.23;;;;;;;;;;4951434;28;20455;-79
2023/02/24 12:14:42;;;;;;;9.27;2.97;;;;;;;;;;4953814;28;20517;-78
2023/02/24 12:17:16;;;;;;;7.38;4.20;;;;;;;;;;4950373;28;21002;-79
2023/02/24 12:20:04;;;;;;;3.90;3.60;;;;;;;;;;4932874;28;20194;-80
2023/02/24 12:22:38;;;;;;;6.13;4.07;;;;;;;;;;4965234;28;20474;-80
2023/02/24 12:25:08;;;;;;;7.18;2.85;;;;;;;;;;4960390;28;20582;-79
2023/02/24 12:27:41;;;;;;;5.47;3.53;;;;;;;;;;4959218;28;20545;-81
2023/02/24 12:30:21;;;;;;;10.13;4.10;;;;;;;;;;4955035;28;20193;-83
2023/02/24 12:33:07;;;;;;;10.73;5.50;;;;;;;;;;4941454;28;20456;-78
2023/02/24 12:35:44;;;;;;;10.02;3.45;;;;;;;;;;4947081;28;20547;-79
2023/02/24 12:38:13;;;;;;;5.93;2.80;;;;;;;;;;4954548;28;20250;-78
2023/02/24 12:40:47;;;;;;;8.05;4.60;;;;;;;;;;4949150;28;20198;-78
2023/02/24 12:43:14;;;;;;;3.30;3.08;;;;;;;;;;4959588;28;20195;-78
2023/02/24 12:45:46;;;;;;;16.65;3.58;;;;;;;;;;4951196;28;20218;-79
2023/02/24 12:48:18;;;;;;;10.18;4.60;;;;;;;;;;4955091;28;20653;-77
2023/02/24 12:50:53;;;;;;;6.43;4.73;;;;;;;;;;4954930;28;20229;-78
2023/02/24 12:53:34;;;;;;;7.38;4.70;;;;;;;;;;4952509;28;20834;-79
2023/02/24 12:56:06;;;;;;;13.13;5.30;;;;;;;;;;4950959;28;20207;-78
2023/02/24 12:58:34;;;;;;;7.20;3.70;;;;;;;;;;4949125;28;20472;-78
2023/02/24 13:01:07;;;;;;;3.30;3.00;;;;;;;;;;4933882;28;20835;-77
2023/02/24 13:03:43;;;;;;;8.10;4.85;;;;;;;;;;4952104;28;20194;-80
2023/02/24 13:06:30;;;;;;;11.23;4.85;;;;;;;;;;4934617;28;20273;-77
2023/02/24 13:09:08;;;;;;;8.30;5.25;;;;;;;;;;4950855;28;20205;-79
2023/02/24 13:11:36;;;;;;;4.13;3.72;;;;;;;;;;4950318;28;20204;-77
2023/02/24 13:14:21;;;;;;;9.45;5.25;;;;;;;;;;4954710;28;20212;-77
2023/02/24 13:16:47;;;;;;;9.68;4.95;;;;;;;;;;4951376;28;20194;-77
2023/02/24 13:19:17;;;;;;;14.77;7.37;;;;;;;;;;4947450;28;20541;-78
2023/02/24 13:21:53;;;;;;;8.55;3.53;;;;;;;;;;4948858;28;20508;-77
2023/02/24 13:24:22;;;;;;;12.90;6.10;;;;;;;;;;4950691;28;20220;-78
2023/02/24 13:26:48;;;;;;;8.90;7.40;;;;;;;;;;4935521;28;20207;-79
2023/02/24 13:29:15;;;;;;;10.85;5.68;;;;;;;;;;4949688;28;20378;-79
2023/02/24 13:31:42;;;;;;;16.35;7.03;;;;;;;;;;4955964;28;20272;-79
2023/02/24 13:34:26;;;;;;;9.20;5.10;;;;;;;;;;4951946;28;20221;-78
2023/02/24 13:36:52;;;;;;;7.10;6.30;;;;;;;;;;4956258;28;20449;-80
2023/02/24 13:39:31;;;;;;;10.07;7.50;;;;;;;;;;4952851;28;20192;-79
2023/02/24 13:42:02;;;;;;;13.68;7.28;;;;;;;;;;4935714;28;20579;-80
2023/02/24 13:44:29;;;;;;;8.10;7.07;;;;;;;;;;4957217;28;20738;-78
2023/02/24 13:47:14;;;;;;;9.83;6.20;;;;;;;;;;4958818;28;20212;-80
2023/02/24 13:49:40;;;;;;;16.10;7.15;;;;;;;;;;4953585;28;20468;-79
2023/02/24 13:52:44;;;;;;;9.53;6.70;;;;;;;;;;4956244;28;20189;-81
2023/02/24 13:55:29;;;;;;;8.32;7.70;;;;;;;;;;4851475;29;20854;-80
2023/02/24 13:57:58;;;;;;;9.80;7.00;;;;;;;;;;4858149;29;20313;-78
2023/02/24 14:00:24;;;;;;;10.70;6.70;;;;;;;;;;4929963;28;20217;-79
2023/02/24 14:02:52;;;;;;;11.13;5.80;;;;;;;;;;4972471;28;20210;-77
2023/02/24 14:05:23;;;;;;;9.20;5.97;;;;;;;;;;4947535;28;20467;-78
2023/02/24 14:07:52;;;;;;;12.63;6.10;;;;;;;;;;4944873;28;20472;-79
2023/02/24 14:10:20;;;;;;;10.65;7.25;;;;;;;;;;4951948;28;20210;-79
2023/02/24 14:12:46;;;;;;;10.68;7.60;;;;;;;;;;4957131;28;20281;-79
2023/02/24 14:15:15;;;;;;;8.80;5.67;;;;;;;;;;4933979;28;20197;-79
2023/02/24 14:17:41;;;;;;;7.78;6.15;;;;;;;;;;4940608;28;20544;-82
2023/02/24 14:20:08;;;;;;;12.10;8.63;;;;;;;;;;4953090;28;20193;-81
2023/02/24 14:22:36;;;;;;;7.97;5.15;;;;;;;;;;4955757;28;20542;-79
2023/02/24 14:25:03;;;;;;;10.33;6.37;;;;;;;;;;4940942;28;20253;-79
2023/02/24 14:27:30;;;;;;;9.30;6.53;;;;;;;;;;4951086;28;20836;-81
2023/02/24 14:29:56;;;;;;;6.30;5.80;;;;;;;;;;4937694;28;20475;-79
2023/02/24 14:32:23;;;;;;;13.07;6.80;;;;;;;;;;4952131;28;20212;-80
2023/02/24 14:34:50;;;;;;;14.15;6.68;;;;;;;;;;4956754;28;20213;-81
2023/02/24 14:37:16;;;;;;;9.13;6.63;;;;;;;;;;4941055;28;20214;-79
2023/02/24 14:39:53;;;;;;;14.43;8.52;;;;;;;;;;4939723;28;20550;-81
2023/02/24 14:42:19;;;;;;;11.18;7.75;;;;;;;;;;4931984;28;20226;-80
2023/02/24 14:44:47;;;;;;;11.00;7.33;;;;;;;;;;4952403;28;20225;-80
2023/02/24 14:47:14;;;;;;;6.50;5.67;;;;;;;;;;4957063;28;20472;-80
2023/02/24 14:49:40;;;;;;;6.20;4.57;;;;;;;;;;4960129;28;20449;-80
2023/02/24 14:52:10;;;;;;;8.98;3.85;;;;;;;;;;4949699;28;20921;-79
2023/02/24 14:54:44;;;;;;;8.63;7.67;;;;;;;;;;4950538;28;20248;-78
2023/02/24 14:57:21;;;;;;;7.97;6.40;;;;;;;;;;4954694;28;20806;-79
2023/02/24 14:59:51;;;;;;;11.82;7.50;;;;;;;;;;4957527;28;20430;-79
2023/02/24 15:02:23;;;;;;;13.73;7.90;;;;;;;;;;4951808;28;20308;-81
2023/02/24 15:04:49;;;;;;;5.30;4.90;;;;;;;;;;4960418;28;20193;-78
2023/02/24 15:07:26;;;;;;;15.70;9.17;;;;;;;;;;4962231;28;20430;-79
2023/02/24 15:09:53;;;;;;;9.02;7.75;;;;;;;;;;4962158;28;20419;-78
2023/02/24 15:12:30;;;;;;;14.18;8.38;;;;;;;;;;4972747;28;20212;-78
2023/02/24 15:14:58;;;;;;;11.30;9.00;;;;;;;;;;4963532;28;20201;-79
2023/02/24 15:17:24;;;;;;;15.52;8.70;;;;;;;;;;4960880;28;20481;-79
2023/02/24 15:19:53;;;;;;;15.37;9.90;;;;;;;;;;4960036;28;20205;-78
2023/02/24 15:22:25;;;;;;;18.27;9.80;;;;;;;;;;4957970;28;21245;-80
2023/02/24 15:24:53;;;;;;;13.60;8.98;;;;;;;;;;4961673;28;20202;-78